Time;durP1;ratioP1;P1;durP2;ratioP2;P2;SDS_P1;SDS_P2;PMS_P1;PMS_P2;Temp;Humidity;BMP_temperature;BMP_pressure;BME280_temperature;BME280_humidity;BME280_pressure;Samples;Min_cycle;Max_cycle;Signal;HPM_P1;HPM_P2
2022/07/28 00:01:31;;;;;;;5.32;2.10;;;;;;;20.12;55.57;100416.38;5009732;28;20088;-79
2022/07/28 00:03:59;;;;;;;2.80;1.40;;;;;;;20.17;55.95;100418.19;5009485;28;20046;-79
2022/07/28 00:06:28;;;;;;;4.82;1.77;;;;;;;20.12;55.52;100429.72;5010712;28;20134;-78
2022/07/28 00:08:55;;;;;;;6.63;1.40;;;;;;;20.10;55.62;100424.41;5011440;28;20096;-78
2022/07/28 00:11:22;;;;;;;3.78;1.35;;;;;;;20.10;55.84;100420.72;5027225;28;20085;-78
2022/07/28 00:13:49;;;;;;;3.42;1.38;;;;;;;20.10;55.87;100423.56;5007891;28;20133;-78
2022/07/28 00:16:16;;;;;;;5.75;1.90;;;;;;;19.98;55.98;100392.34;5010447;28;20129;-78
2022/07/28 00:18:44;;;;;;;6.45;2.00;;;;;;;20.07;55.95;100419.44;5011502;28;20459;-79
2022/07/28 00:21:12;;;;;;;7.40;1.25;;;;;;;20.05;56.04;100410.44;5012134;28;20089;-78
2022/07/28 00:23:39;;;;;;;7.00;1.80;;;;;;;19.87;55.84;100387.13;5005622;28;20124;-78
2022/07/28 00:26:10;;;;;;;4.60;1.55;;;;;;;19.93;55.96;100395.38;5008453;28;20085;-78
2022/07/28 00:28:37;;;;;;;4.25;1.45;;;;;;;19.81;56.11;100367.84;5010701;28;20490;-79
2022/07/28 00:31:05;;;;;;;3.08;1.30;;;;;;;19.91;56.40;100378.75;5009431;28;20517;-78
2022/07/28 00:33:38;;;;;;;4.38;1.50;;;;;;;19.82;56.36;100373.16;5011840;28;20443;-78
2022/07/28 00:36:07;;;;;;;5.13;1.30;;;;;;;19.96;56.43;100391.88;5014544;28;20056;-78
2022/07/28 00:38:38;;;;;;;4.07;1.40;;;;;;;19.81;56.40;100370.66;5017221;28;20465;-78
2022/07/28 00:41:09;;;;;;;4.57;1.88;;;;;;;19.63;56.42;100336.00;5031074;28;20050;-78
2022/07/28 00:43:38;;;;;;;4.82;1.02;;;;;;;19.96;56.41;100381.34;5028612;28;20113;-79
2022/07/28 00:46:05;;;;;;;3.90;1.55;;;;;;;19.88;56.25;100376.59;5022645;28;20116;-79
2022/07/28 00:48:32;;;;;;;3.38;0.95;;;;;;;19.77;56.50;100364.88;5011976;28;20115;-78
2022/07/28 00:50:58;;;;;;;3.05;1.58;;;;;;;19.78;56.41;100363.69;5013262;28;20080;-78
2022/07/28 00:53:25;;;;;;;3.42;1.00;;;;;;;19.86;56.44;100370.44;5013888;28;20136;-77
2022/07/28 00:55:52;;;;;;;5.88;1.08;;;;;;;19.75;56.53;100340.88;5017082;28;20077;-77
2022/07/28 00:58:33;;;;;;;4.93;1.60;;;;;;;19.88;56.13;100360.44;5006091;28;20073;-78
2022/07/28 01:01:00;;;;;;;6.43;1.50;;;;;;;19.83;56.44;100348.50;5015908;28;20077;-77
2022/07/28 01:03:28;;;;;;;3.80;1.10;;;;;;;19.80;56.29;100340.69;5016450;28;20046;-78
2022/07/28 01:05:57;;;;;;;3.63;2.00;;;;;;;19.93;56.46;100367.91;5016772;28;20124;-78
2022/07/28 01:08:56;;;;;;;5.40;1.92;;;;;;;19.94;56.29;100363.06;5016315;28;20526;-78
2022/07/28 01:11:37;;;;;;;6.20;2.13;;;;;;;19.87;56.27;100353.09;5004503;28;20086;-78
2022/07/28 01:14:22;;;;;;;5.18;1.73;;;;;;;19.80;56.25;100333.00;5013544;28;20057;-78
2022/07/28 01:17:00;;;;;;;2.95;1.17;;;;;;;19.61;56.16;100299.47;5012430;28;20077;-78
2022/07/28 01:19:33;;;;;;;3.30;1.80;;;;;;;19.94;56.18;100361.03;5012597;28;20077;-78
2022/07/28 01:22:02;;;;;;;1.75;1.10;;;;;;;19.88;56.31;100334.91;5013275;28;20050;-78
2022/07/28 01:24:37;;;;;;;3.60;1.50;;;;;;;19.91;55.98;100346.75;5013683;28;20104;-78
2022/07/28 01:27:28;;;;;;;4.72;1.35;;;;;;;19.88;56.13;100343.41;5012925;28;20120;-79
2022/07/28 01:30:03;;;;;;;4.65;1.45;;;;;;;19.81;56.06;100319.66;5010510;28;20046;-79
2022/07/28 01:32:42;;;;;;;2.38;1.42;;;;;;;19.79;56.40;100331.34;5019136;28;20077;-78
2022/07/28 01:35:27;;;;;;;2.55;1.08;;;;;;;19.76;56.09;100322.69;5014042;28;20141;-78
2022/07/28 01:38:00;;;;;;;7.38;1.13;;;;;;;19.77;56.62;100324.38;4996436;28;20050;-78
2022/07/28 01:40:33;;;;;;;3.88;1.20;;;;;;;19.79;56.55;100334.16;5013611;28;20085;-78
2022/07/28 01:43:03;;;;;;;3.38;1.00;;;;;;;19.80;56.50;100335.84;5014557;28;20128;-78
2022/07/28 01:45:31;;;;;;;;;;;;;;;19.73;56.03;100337.59;5013656;28;20526;-78
2022/07/28 01:48:00;;;;;;;4.63;1.20;;;;;;;19.67;56.30;100330.47;5009070;28;20337;-78
2022/07/28 01:50:32;;;;;;;1.52;1.42;;;;;;;19.60;56.34;100325.34;5009014;28;20534;-80
2022/07/28 01:53:00;;;;;;;2.10;1.30;;;;;;;19.67;56.63;100328.47;5010112;28;20129;-78
2022/07/28 01:55:28;;;;;;;9.30;1.60;;;;;;;19.52;56.82;100310.09;5014658;28;20141;-78
2022/07/28 01:57:56;;;;;;;2.50;1.40;;;;;;;19.46;56.64;100299.31;5013847;28;20972;-78
2022/07/28 02:00:25;;;;;;;5.25;1.45;;;;;;;19.60;56.61;100325.34;5028351;28;20106;-78
2022/07/28 02:02:56;;;;;;;3.15;0.90;;;;;;;19.32;56.83;100288.28;5012451;28;20100;-78
2022/07/28 02:05:25;;;;;;;8.15;1.17;;;;;;;19.45;56.88;100306.94;5029267;28;20554;-78
2022/07/28 02:07:55;;;;;;;3.97;1.42;;;;;;;19.37;57.01;100302.19;5013682;28;20108;-78
2022/07/28 02:10:24;;;;;;;3.05;1.25;;;;;;;19.41;57.32;100303.16;5013406;28;20129;-78
2022/07/28 02:12:54;;;;;;;4.10;1.83;;;;;;;19.41;57.47;100308.81;5014748;28;20050;-78
2022/07/28 02:15:22;;;;;;;2.45;1.15;;;;;;;19.51;57.73;100319.72;5012873;28;20081;-78
2022/07/28 02:17:52;;;;;;;5.90;1.60;;;;;;;19.55;58.10;100323.53;5009536;28;20137;-78
2022/07/28 02:20:20;;;;;;;5.70;1.42;;;;;;;19.31;57.98;100283.75;5014806;28;20518;-78
2022/07/28 02:22:50;;;;;;;3.15;1.13;;;;;;;19.48;58.03;100317.59;5013630;28;20104;-78
2022/07/28 02:25:19;;;;;;;3.92;1.30;;;;;;;19.46;57.98;100317.13;5014209;28;20050;-78
2022/07/28 02:27:48;;;;;;;8.98;2.30;;;;;;;19.38;57.91;100301.88;5010032;28;20049;-77
2022/07/28 02:30:34;;;;;;;4.60;1.80;;;;;;;19.36;57.97;100294.91;5003380;28;20046;-77
2022/07/28 02:33:06;;;;;;;2.60;1.48;;;;;;;19.43;58.38;100303.66;5002244;28;20162;-77
2022/07/28 02:35:47;;;;;;;6.07;2.05;;;;;;;19.46;58.32;100308.63;5008182;28;20486;-77
2022/07/28 02:38:28;;;;;;;3.50;1.60;;;;;;;19.39;58.33;100299.88;4991575;28;20100;-77
2022/07/28 02:40:59;;;;;;;5.82;2.67;;;;;;;19.09;58.44;100251.81;5032006;28;20058;-77
2022/07/28 02:43:29;;;;;;;8.95;2.17;;;;;;;19.34;58.77;100294.41;5009186;28;20129;-76
2022/07/28 02:46:20;;;;;;;11.80;3.03;;;;;;;19.35;58.68;100294.06;5011037;28;20049;-78
2022/07/28 02:48:51;;;;;;;4.82;2.08;;;;;;;19.30;58.64;100279.28;5010487;28;20164;-77
2022/07/28 02:51:22;;;;;;;7.00;1.90;;;;;;;19.29;59.01;100289.78;5009002;28;20129;-78
2022/07/28 02:53:51;;;;;;;5.53;1.50;;;;;;;19.44;58.63;100307.31;5009068;28;20058;-79
2022/07/28 02:56:19;;;;;;;4.88;1.77;;;;;;;19.39;58.71;100299.88;5026342;28;20142;-77
2022/07/28 02:58:47;;;;;;;4.20;1.77;;;;;;;19.27;59.11;100294.13;5009369;28;20133;-77
2022/07/28 03:01:17;;;;;;;10.13;1.70;;;;;;;19.39;59.32;100314.03;5026648;28;20104;-78
2022/07/28 03:03:47;;;;;;;5.18;1.67;;;;;;;19.35;59.51;100301.72;5012003;28;20503;-78
2022/07/28 03:06:19;;;;;;;6.25;1.65;;;;;;;19.30;59.50;100299.94;5013980;28;20085;-77
2022/07/28 03:08:54;;;;;;;;;;;;;;;19.21;59.10;100310.47;5013448;28;20061;-78
2022/07/28 03:11:21;;;;;;;6.68;1.77;;;;;;;19.18;59.08;100295.03;5011856;28;19925;-77
2022/07/28 03:13:48;;;;;;;2.60;1.20;;;;;;;19.13;59.19;100295.22;5009388;28;20145;-78
2022/07/28 03:16:15;;;;;;;4.80;2.00;;;;;;;19.12;59.15;100290.75;5011503;28;20085;-77
2022/07/28 03:18:42;;;;;;;6.22;1.33;;;;;;;19.12;59.55;100289.94;5010221;28;20053;-78
2022/07/28 03:21:09;;;;;;;8.77;1.77;;;;;;;19.24;59.73;100300.47;5011889;28;20089;-77
2022/07/28 03:23:42;;;;;;;8.98;1.52;;;;;;;19.03;59.63;100264.50;5011416;28;20149;-77
2022/07/28 03:26:33;;;;;;;6.72;1.90;;;;;;;19.21;59.63;100295.50;5011024;28;20062;-77
2022/07/28 03:29:01;;;;;;;3.83;1.55;;;;;;;19.11;59.79;100276.94;4998191;28;20053;-77
2022/07/28 03:31:30;;;;;;;8.57;2.30;;;;;;;19.01;59.74;100266.88;5027549;28;20112;-78
2022/07/28 03:33:57;;;;;;;9.02;2.03;;;;;;;19.20;59.60;100300.34;5011268;28;20125;-77
2022/07/28 03:36:30;;;;;;;3.25;1.50;;;;;;;19.07;60.00;100284.44;5010489;28;20085;-77
2022/07/28 03:39:01;;;;;;;5.80;1.92;;;;;;;19.02;59.73;100265.69;5012432;28;20127;-78
2022/07/28 03:41:29;;;;;;;6.70;1.83;;;;;;;19.16;60.09;100288.06;5010659;28;20133;-78
2022/07/28 03:43:57;;;;;;;6.18;1.67;;;;;;;19.09;60.41;100274.47;5022983;28;20141;-78
2022/07/28 03:46:25;;;;;;;3.60;1.85;;;;;;;18.89;60.11;100241.31;5012609;28;20069;-78
2022/07/28 03:48:52;;;;;;;5.10;1.77;;;;;;;18.90;59.99;100245.78;5020010;28;20061;-78
2022/07/28 03:51:20;;;;;;;7.57;2.03;;;;;;;19.14;60.26;100284.72;5029241;28;20052;-78
2022/07/28 03:53:48;;;;;;;6.00;2.00;;;;;;;19.09;60.41;100282.94;5029652;28;20076;-78
2022/07/28 03:56:15;;;;;;;7.05;2.00;;;;;;;19.01;60.42;100274.50;5016693;28;20080;-78
2022/07/28 03:58:41;;;;;;;9.13;2.85;;;;;;;18.97;60.09;100263.03;5017724;28;20077;-78
2022/07/28 04:01:08;;;;;;;9.57;2.03;;;;;;;19.08;60.49;100289.78;5009355;28;20068;-78
2022/07/28 04:03:35;;;;;;;6.30;2.38;;;;;;;19.05;60.46;100281.97;5024653;28;20046;-77
2022/07/28 04:06:13;;;;;;;3.28;1.85;;;;;;;19.09;60.57;100288.59;5010283;28;20124;-77
2022/07/28 04:08:42;;;;;;;7.38;2.55;;;;;;;18.99;60.47;100266.38;5008951;28;20096;-78
2022/07/28 04:11:08;;;;;;;7.68;2.90;;;;;;;18.88;60.46;100256.66;5013333;28;20132;-77
2022/07/28 04:13:35;;;;;;;8.32;2.55;;;;;;;18.97;60.44;100273.53;5011859;28;20057;-77
2022/07/28 04:16:05;;;;;;;4.60;1.95;;;;;;;19.13;60.61;100289.56;5014485;28;20129;-77
2022/07/28 04:18:33;;;;;;;9.15;3.38;;;;;;;18.91;60.30;100265.28;5030442;28;20069;-77
2022/07/28 04:20:59;;;;;;;6.38;2.78;;;;;;;18.99;60.57;100263.53;5014441;28;20077;-78
2022/07/28 04:23:27;;;;;;;9.00;3.15;;;;;;;19.02;60.71;100265.69;5013790;28;20077;-77
2022/07/28 04:25:54;;;;;;;6.95;3.55;;;;;;;18.94;60.77;100255.28;5015550;28;20050;-77
2022/07/28 04:28:21;;;;;;;5.50;2.53;;;;;;;18.88;60.68;100248.16;5016471;28;20095;-77
2022/07/28 04:30:48;;;;;;;4.80;2.35;;;;;;;19.15;61.07;100295.72;5027624;28;20132;-78
2022/07/28 04:33:17;;;;;;;6.22;2.30;;;;;;;19.02;61.17;100264.88;5014193;28;20054;-77
2022/07/28 04:35:45;;;;;;;4.28;2.63;;;;;;;19.15;60.70;100280.75;5012217;28;20214;-77
2022/07/28 04:38:13;;;;;;;9.52;2.83;;;;;;;19.22;60.98;100283.03;5013156;28;20042;-77
2022/07/28 04:40:41;;;;;;;8.25;2.03;;;;;;;19.05;60.79;100258.53;5021737;28;20045;-78
2022/07/28 04:43:09;;;;;;;6.07;1.77;;;;;;;18.83;60.93;100223.72;5030841;28;20054;-78
2022/07/28 04:45:36;;;;;;;8.18;1.85;;;;;;;19.14;60.84;100268.59;5015375;28;20459;-78
2022/07/28 04:48:03;;;;;;;4.50;2.00;;;;;;;19.15;60.76;100264.59;5016045;28;20506;-78
2022/07/28 04:50:31;;;;;;;6.60;1.67;;;;;;;19.24;60.69;100273.00;5013905;28;20088;-78
2022/07/28 04:52:58;;;;;;;7.93;1.48;;;;;;;19.13;60.63;100252.78;5012433;28;20092;-78
2022/07/28 04:55:25;;;;;;;5.40;1.52;;;;;;;19.11;60.73;100263.63;5016896;28;20449;-78
2022/07/28 04:57:52;;;;;;;2.70;1.48;;;;;;;19.09;60.97;100254.66;5014646;28;20478;-79
2022/07/28 05:00:20;;;;;;;3.15;1.20;;;;;;;19.07;60.73;100245.66;5010911;28;20140;-79
2022/07/28 05:02:48;;;;;;;2.90;1.10;;;;;;;19.29;60.83;100269.16;5028750;28;20050;-78
2022/07/28 05:05:15;;;;;;;7.47;1.50;;;;;;;19.22;60.03;100263.22;5011935;28;20070;-79
2022/07/28 05:07:43;;;;;;;3.83;1.48;;;;;;;19.29;60.36;100274.81;5021197;28;20053;-78
2022/07/28 05:10:11;;;;;;;6.38;1.55;;;;;;;19.09;60.28;100237.66;5013722;28;20075;-78
2022/07/28 05:12:38;;;;;;;2.80;1.60;;;;;;;19.28;60.38;100273.13;5011688;28;20049;-78
2022/07/28 05:15:06;;;;;;;7.50;2.08;;;;;;;19.37;60.19;100277.53;5015409;28;20451;-79
2022/07/28 05:17:33;;;;;;;2.50;1.27;;;;;;;19.40;60.27;100278.88;5012301;28;20124;-79
2022/07/28 05:20:00;;;;;;;6.25;1.80;;;;;;;19.37;60.19;100277.53;5011286;28;20084;-79
2022/07/28 05:22:57;;;;;;;4.45;1.35;;;;;;;18.94;61.24;100264.59;5013987;28;20057;-79
2022/07/28 05:25:48;;;;;;;4.22;2.22;;;;;;;18.94;61.11;100260.94;4996295;28;20414;-79
2022/07/28 05:28:17;;;;;;;8.30;2.72;;;;;;;18.93;60.91;100264.91;5011389;28;20136;-79
2022/07/28 05:30:46;;;;;;;6.18;2.58;;;;;;;18.96;61.30;100289.69;5009945;28;20053;-79
2022/07/28 05:33:16;;;;;;;5.40;2.25;;;;;;;18.99;61.38;100283.34;5014173;28;20140;-79
2022/07/28 05:35:51;;;;;;;5.78;2.35;;;;;;;19.09;61.08;100280.13;5011858;28;20144;-78
2022/07/28 05:38:18;;;;;;;5.78;2.70;;;;;;;18.81;60.64;100239.41;5007887;28;20141;-78
2022/07/28 05:40:47;;;;;;;6.90;2.85;;;;;;;18.90;61.10;100272.09;5013599;28;20145;-78
2022/07/28 05:43:14;;;;;;;7.83;3.00;;;;;;;18.93;60.89;100285.53;5010143;28;20145;-79
2022/07/28 05:45:41;;;;;;;9.23;3.25;;;;;;;18.99;60.71;100283.34;5011920;28;20132;-78
2022/07/28 05:48:08;;;;;;;10.35;3.13;;;;;;;19.06;60.65;100294.94;5013555;28;20075;-78
2022/07/28 05:50:35;;;;;;;8.52;5.25;;;;;;;19.30;60.33;100305.59;5025482;28;20085;-74
2022/07/28 05:53:02;;;;;;;11.75;5.28;;;;;;;19.14;59.85;100271.44;5011111;28;20054;-75
2022/07/28 05:55:29;;;;;;;8.85;5.22;;;;;;;19.49;60.00;100313.59;5004947;28;20050;-76
2022/07/28 05:57:59;;;;;;;7.88;4.97;;;;;;;19.38;60.12;100295.34;5010281;28;20140;-77
2022/07/28 06:00:25;;;;;;;;;;;;;;;19.45;59.90;100314.63;5012696;28;20089;-76
2022/07/28 06:02:53;;;;;;;15.40;4.25;;;;;;;19.45;59.67;100300.47;5010558;28;19922;-76
2022/07/28 06:05:21;;;;;;;5.93;4.60;;;;;;;19.50;59.83;100301.09;5009552;28;20164;-77
2022/07/28 06:07:49;;;;;;;12.93;4.80;;;;;;;19.55;59.82;100317.03;5009645;28;20073;-77
2022/07/28 06:10:20;;;;;;;8.45;4.30;;;;;;;19.50;59.84;100303.94;5008559;28;20129;-75
2022/07/28 06:12:54;;;;;;;;;;;;;;;19.51;60.01;100310.41;5009365;28;20062;-79
2022/07/28 06:15:24;;;;;;;7.60;3.83;;;;;;;19.58;59.36;100305.84;5008519;28;20101;-77
2022/07/28 06:17:54;;;;;;;8.85;4.07;;;;;;;19.63;59.58;100314.16;5026272;28;20049;-78
2022/07/28 06:20:23;;;;;;;7.38;4.35;;;;;;;19.67;59.32;100311.47;5003564;28;20049;-77
2022/07/28 06:22:52;;;;;;;5.75;3.35;;;;;;;19.72;59.53;100284.91;5006058;28;20463;-75
2022/07/28 06:25:21;;;;;;;11.75;3.55;;;;;;;20.16;59.22;100308.78;5021117;28;20077;-75
2022/07/28 06:27:49;;;;;;;4.05;2.67;;;;;;;20.44;58.73;100308.94;5005854;28;20133;-76
2022/07/28 06:30:17;;;;;;;4.07;2.30;;;;;;;20.67;58.44;100317.03;5008362;28;20050;-79
2022/07/28 06:32:45;;;;;;;4.90;2.35;;;;;;;20.89;58.03;100305.19;5006772;28;20142;-77
2022/07/28 06:35:15;;;;;;;7.63;2.50;;;;;;;20.88;57.56;100277.97;5010963;28;20141;-77
2022/07/28 06:37:43;;;;;;;8.18;2.70;;;;;;;21.16;57.42;100311.28;5003282;28;20136;-77
2022/07/28 06:40:11;;;;;;;6.75;2.97;;;;;;;21.35;56.87;100297.31;5005202;28;20478;-77
2022/07/28 06:42:40;;;;;;;5.65;2.30;;;;;;;21.63;56.35;100299.34;5021293;28;20162;-77
2022/07/28 06:45:08;;;;;;;3.65;2.65;;;;;;;21.59;56.02;100296.41;5002616;28;20132;-79
2022/07/28 06:47:47;;;;;;;9.13;2.33;;;;;;;21.74;55.71;100291.94;5006535;28;20081;-78
2022/07/28 06:50:14;;;;;;;6.78;2.53;;;;;;;22.26;55.48;100325.13;5007767;28;20195;-79
2022/07/28 06:52:56;;;;;;;4.20;2.08;;;;;;;22.09;55.06;100275.06;5004682;28;20045;-79
2022/07/28 06:55:25;;;;;;;4.20;2.20;;;;;;;22.37;54.69;100316.88;5013878;28;20056;-79
2022/07/28 06:58:04;;;;;;;4.55;1.88;;;;;;;22.64;54.59;100332.19;5012517;28;20061;-79
2022/07/28 07:00:31;;;;;;;8.82;3.35;;;;;;;22.77;54.30;100328.06;5006567;28;20407;-79
2022/07/28 07:02:58;;;;;;;7.30;2.38;;;;;;;22.76;53.64;100319.88;5009224;28;20050;-79
2022/07/28 07:05:30;;;;;;;3.40;2.35;;;;;;;22.86;53.80;100325.81;5010339;28;20049;-79
2022/07/28 07:07:59;;;;;;;5.18;2.35;;;;;;;22.89;53.60;100316.53;5010040;28;20137;-78
2022/07/28 07:10:26;;;;;;;4.47;2.45;;;;;;;22.91;53.24;100314.16;5010488;28;20112;-77
2022/07/28 07:12:53;;;;;;;6.13;3.00;;;;;;;23.20;52.52;100334.81;5025401;28;20077;-78
2022/07/28 07:15:20;;;;;;;8.18;2.88;;;;;;;23.41;52.45;100312.47;5009906;28;20050;-78
2022/07/28 07:17:46;;;;;;;8.13;2.55;;;;;;;23.78;51.51;100309.22;5009971;28;21077;-78
2022/07/28 07:20:13;;;;;;;3.10;2.08;;;;;;;23.74;51.16;100341.72;5010211;28;20413;-77
2022/07/28 07:22:44;;;;;;;6.05;2.40;;;;;;;23.71;51.21;100331.88;5006952;28;20541;-74
2022/07/28 07:25:14;;;;;;;6.23;2.03;;;;;;;23.45;51.09;100314.59;5006710;28;20053;-77
2022/07/28 07:27:41;;;;;;;5.82;2.25;;;;;;;23.49;51.44;100339.13;5014898;28;20046;-79
2022/07/28 07:30:09;;;;;;;6.15;1.83;;;;;;;23.28;51.33;100319.53;4998929;28;20136;-76
2022/07/28 07:32:36;;;;;;;4.50;2.38;;;;;;;23.29;51.34;100321.19;5003721;28;20324;-78
2022/07/28 07:35:04;;;;;;;4.70;2.45;;;;;;;23.18;50.97;100289.59;4996923;28;21311;-78
2022/07/28 07:37:31;;;;;;;7.75;1.67;;;;;;;23.38;51.11;100338.91;5002290;28;20426;-78
2022/07/28 07:40:03;;;;;;;4.32;2.13;;;;;;;23.37;50.75;100337.22;5008716;28;20407;-78
2022/07/28 07:42:30;;;;;;;5.07;2.00;;;;;;;23.29;50.49;100318.34;5007720;28;20552;-77
2022/07/28 07:44:57;;;;;;;8.13;3.95;;;;;;;23.15;50.54;100315.16;5010542;28;20491;-78
2022/07/28 07:47:24;;;;;;;6.63;1.98;;;;;;;23.53;50.39;100339.22;5005399;28;20459;-78
2022/07/28 07:49:51;;;;;;;8.68;4.43;;;;;;;23.84;49.90;100315.47;5000128;28;20573;-74
2022/07/28 07:52:18;;;;;;;7.05;3.63;;;;;;;24.25;49.49;100315.84;5006019;28;20639;-75
2022/07/28 07:54:44;;;;;;;3.35;1.70;;;;;;;24.45;48.97;100328.06;5003161;28;20083;-75
2022/07/28 07:57:12;;;;;;;4.65;1.85;;;;;;;24.34;48.77;100302.13;5001315;28;20145;-75
2022/07/28 07:59:38;;;;;;;11.10;1.83;;;;;;;24.56;48.50;100327.03;4998708;28;20069;-76
2022/07/28 08:02:05;;;;;;;5.15;2.00;;;;;;;25.03;47.81;100342.09;5002335;28;22526;-76
2022/07/28 08:04:33;;;;;;;5.57;1.90;;;;;;;25.08;47.30;100316.03;4998588;28;20486;-76
2022/07/28 08:07:05;;;;;;;3.47;2.30;;;;;;;25.41;46.96;100320.22;4998828;28;20483;-75
2022/07/28 08:09:32;;;;;;;4.43;1.75;;;;;;;25.44;46.34;100339.47;5002286;28;20400;-73
2022/07/28 08:11:59;;;;;;;13.82;5.78;;;;;;;25.40;46.55;100324.28;4999326;28;20494;-73
2022/07/28 08:14:26;;;;;;;10.70;5.88;;;;;;;25.49;46.13;100316.25;4999148;28;20479;-74
2022/07/28 08:16:55;;;;;;;5.30;2.03;;;;;;;25.71;45.81;100343.09;5001838;28;20053;-75
2022/07/28 08:19:22;;;;;;;9.25;4.10;;;;;;;25.53;45.83;100317.09;5003038;28;20060;-74
2022/07/28 08:21:49;;;;;;;6.40;3.33;;;;;;;25.66;45.88;100324.22;5000846;28;20062;-74
2022/07/28 08:24:17;;;;;;;3.70;2.20;;;;;;;25.71;45.65;100315.31;4997831;28;20068;-75
2022/07/28 08:26:58;;;;;;;4.45;1.40;;;;;;;25.80;45.53;100317.91;5005259;28;20100;-75
2022/07/28 08:29:25;;;;;;;5.20;1.65;;;;;;;26.16;44.82;100333.44;5003363;28;20614;-75
2022/07/28 08:31:52;;;;;;;3.42;1.60;;;;;;;26.17;44.71;100297.06;5001541;28;20499;-75
2022/07/28 08:34:19;;;;;;;5.78;2.05;;;;;;;26.67;44.60;100321.31;5001923;28;20577;-74
2022/07/28 08:36:57;;;;;;;3.17;1.80;;;;;;;26.85;44.40;100326.34;4999211;28;20046;-73
2022/07/28 08:39:24;;;;;;;3.60;1.90;;;;;;;26.82;43.76;100330.00;4998526;28;20046;-72
2022/07/28 08:41:59;;;;;;;2.17;1.25;;;;;;;26.82;43.69;100330.00;4996969;28;20321;-74
2022/07/28 08:44:38;;;;;;;4.90;2.00;;;;;;;26.77;43.29;100318.91;5000741;28;20144;-74
2022/07/28 08:47:09;;;;;;;2.25;1.55;;;;;;;26.43;43.19;100287.50;5001870;28;21375;-76
2022/07/28 08:49:39;;;;;;;3.97;1.90;;;;;;;26.58;42.99;100305.66;5003951;28;20463;-75
2022/07/28 08:52:09;;;;;;;3.45;1.83;;;;;;;26.69;42.91;100304.53;4999935;28;20049;-75
2022/07/28 08:54:41;;;;;;;2.83;1.40;;;;;;;26.68;42.63;100325.81;5001885;28;20634;-76
2022/07/28 08:57:26;;;;;;;2.45;1.58;;;;;;;26.55;42.71;100315.88;5001801;28;20117;-75
2022/07/28 08:59:53;;;;;;;7.82;2.10;;;;;;;26.58;43.29;100335.13;4998431;28;20085;-74
2022/07/28 09:02:22;;;;;;;4.88;2.55;;;;;;;26.52;43.02;100308.06;5001925;28;20062;-75
2022/07/28 09:04:49;;;;;;;9.90;2.60;;;;;;;26.72;42.86;100302.09;5003491;28;20053;-75
2022/07/28 09:07:17;;;;;;;5.05;2.20;;;;;;;27.02;42.47;100311.34;5007015;28;20482;-75
2022/07/28 09:09:47;;;;;;;3.63;2.55;;;;;;;27.50;42.55;100324.78;5002356;28;20060;-75
2022/07/28 09:12:15;;;;;;;5.40;2.17;;;;;;;27.80;42.05;100333.97;5004655;28;20050;-74
2022/07/28 09:14:42;;;;;;;7.30;1.95;;;;;;;28.11;41.67;100335.28;4999796;28;20062;-74
2022/07/28 09:17:09;;;;;;;3.58;1.52;;;;;;;28.22;41.30;100320.16;4998784;28;20133;-75
2022/07/28 09:19:38;;;;;;;5.15;1.90;;;;;;;28.44;40.75;100323.91;5005761;28;20566;-74
2022/07/28 09:22:06;;;;;;;4.88;1.83;;;;;;;28.66;40.52;100322.69;5001416;28;20141;-73
2022/07/28 09:24:41;;;;;;;4.47;1.77;;;;;;;29.17;39.97;100317.78;5002475;28;20133;-77
2022/07/28 09:27:13;;;;;;;3.17;1.70;;;;;;;29.59;38.84;100330.41;4997651;28;20078;-77
2022/07/28 09:29:44;;;;;;;5.45;1.35;;;;;;;29.78;38.15;100306.94;5019421;28;20414;-77
2022/07/28 09:32:13;;;;;;;4.50;1.30;;;;;;;30.05;37.86;100323.63;4998973;28;20572;-79
2022/07/28 09:34:47;;;;;;;2.20;1.58;;;;;;;30.09;37.65;100318.69;5006423;28;22199;-81
2022/07/28 09:37:19;;;;;;;5.15;2.15;;;;;;;30.12;37.38;100315.78;5017602;28;20060;-80
2022/07/28 09:39:57;;;;;;;2.83;1.40;;;;;;;30.41;37.16;100333.75;5009536;28;20050;-84
2022/07/28 09:42:25;;;;;;;3.28;1.48;;;;;;;30.50;36.96;100307.34;5011760;28;20046;-85
2022/07/28 09:45:04;;;;;;;3.17;1.38;;;;;;;30.69;37.22;100312.53;5012359;28;20050;-87
2022/07/28 09:48:12;;;;;;;5.18;1.50;;;;;;;30.78;37.18;100325.69;5003251;28;20426;-76
2022/07/28 09:50:41;;;;;;;3.17;1.38;;;;;;;30.71;36.86;100328.59;5002631;28;20049;-75
2022/07/28 09:53:21;;;;;;;2.30;1.10;;;;;;;30.76;37.00;100336.81;5004185;28;20188;-72
2022/07/28 09:56:00;;;;;;;5.03;1.92;;;;;;;30.67;36.69;100312.16;5002524;28;20168;-74
2022/07/28 09:58:28;;;;;;;2.33;1.63;;;;;;;30.91;36.62;100339.16;5005992;28;20060;-75
2022/07/28 10:01:14;;;;;;;2.67;1.52;;;;;;;31.02;36.62;100339.06;5008650;28;20076;-73
2022/07/28 10:03:47;;;;;;;1.30;1.05;;;;;;;31.17;36.59;100331.06;5012811;28;20065;-73
2022/07/28 10:06:15;;;;;;;1.85;1.10;;;;;;;31.19;36.55;100345.09;5008280;28;20046;-73
2022/07/28 10:08:45;;;;;;;2.80;1.33;;;;;;;31.29;36.32;100330.56;5010014;28;20148;-72
2022/07/28 10:11:15;;;;;;;2.20;1.05;;;;;;;31.38;35.95;100322.25;5012215;28;20153;-72
2022/07/28 10:13:52;;;;;;;2.90;1.08;;;;;;;31.52;35.80;100334.84;5012122;28;20148;-75
2022/07/28 10:16:20;;;;;;;3.33;1.40;;;;;;;31.67;35.93;100327.69;5004123;28;20045;-74
2022/07/28 10:18:47;;;;;;;3.40;1.37;;;;;;;32.03;35.85;100339.59;5011728;28;20058;-74
2022/07/28 10:21:16;;;;;;;3.75;1.45;;;;;;;32.18;34.91;100322.09;5025792;28;20057;-73
2022/07/28 10:23:47;;;;;;;3.05;1.30;;;;;;;32.28;35.01;100329.78;5010009;28;20054;-74
2022/07/28 10:26:15;;;;;;;6.60;1.95;;;;;;;32.10;35.21;100347.34;5008126;28;20494;-74
2022/07/28 10:28:51;;;;;;;4.45;1.95;;;;;;;31.86;35.62;100301.03;5008097;28;20137;-73
2022/07/28 10:31:33;;;;;;;3.80;1.83;;;;;;;32.36;35.20;100327.59;5000346;28;20081;-73
2022/07/28 10:34:02;;;;;;;4.05;2.40;;;;;;;32.25;35.32;100287.31;5011873;28;20081;-73
2022/07/28 10:36:32;;;;;;;5.53;2.00;;;;;;;32.56;35.18;100325.66;5011441;28;20045;-78
2022/07/28 10:39:10;;;;;;;4.50;2.90;;;;;;;32.65;35.28;100340.41;5000666;28;20140;-76
2022/07/28 10:41:40;;;;;;;3.40;2.07;;;;;;;32.64;34.91;100338.75;5005090;28;20050;-75
2022/07/28 10:44:12;;;;;;;4.35;1.90;;;;;;;32.56;34.85;100319.88;5004837;28;20284;-77
2022/07/28 10:46:41;;;;;;;5.93;2.25;;;;;;;32.61;34.78;100341.69;5016341;28;20109;-75
2022/07/28 10:49:09;;;;;;;8.60;2.33;;;;;;;32.86;34.65;100326.84;5006609;28;20124;-76
2022/07/28 10:51:44;;;;;;;4.38;2.05;;;;;;;32.97;34.61;100321.72;5001896;28;21017;-77
2022/07/28 10:54:36;;;;;;;4.10;2.20;;;;;;;33.03;34.12;100322.84;5010341;28;20056;-77
2022/07/28 10:57:09;;;;;;;4.70;2.28;;;;;;;33.17;34.36;100342.03;5019586;28;20514;-76
2022/07/28 10:59:42;;;;;;;3.03;1.73;;;;;;;33.08;34.33;100331.00;5007379;28;20073;-77
2022/07/28 11:02:44;;;;;;;3.28;1.30;;;;;;;33.09;34.83;100335.53;5004325;28;20092;-77
2022/07/28 11:05:24;;;;;;;3.42;0.75;;;;;;;32.97;35.00;100333.28;5005378;28;20060;-76
2022/07/28 11:07:53;;;;;;;2.75;1.30;;;;;;;32.96;35.34;100344.03;5009506;28;20061;-76
2022/07/28 11:10:21;;;;;;;1.65;1.00;;;;;;;33.13;34.97;100330.53;5007821;28;20085;-76
2022/07/28 11:12:50;;;;;;;1.90;0.98;;;;;;;33.07;35.17;100314.91;5005945;28;20050;-77
2022/07/28 11:15:32;;;;;;;1.98;1.23;;;;;;;32.92;35.07;100325.06;5005216;28;20053;-75
2022/07/28 11:18:09;;;;;;;1.98;0.80;;;;;;;32.75;35.05;100316.28;5002185;28;20136;-75
2022/07/28 11:20:59;;;;;;;2.67;1.50;;;;;;;32.59;35.59;100324.81;5006813;28;20081;-76
2022/07/28 11:23:52;;;;;;;0.93;0.77;;;;;;;32.49;35.65;100326.59;4996933;28;20285;-75
2022/07/28 11:26:22;;;;;;;1.23;1.00;;;;;;;32.56;35.95;100340.13;5009763;28;20050;-77
2022/07/28 11:29:09;;;;;;;2.95;1.20;;;;;;;32.60;36.22;100338.00;5009295;28;20089;-77
2022/07/28 11:31:45;;;;;;;1.85;0.77;;;;;;;32.82;35.44;100329.78;5009369;28;20050;-75
2022/07/28 11:34:13;;;;;;;0.80;0.80;;;;;;;32.96;35.76;100344.03;5012452;28;20140;-76
2022/07/28 11:37:01;;;;;;;1.42;0.95;;;;;;;32.83;36.05;100333.50;5009964;28;20482;-76
2022/07/28 11:39:29;;;;;;;1.73;1.00;;;;;;;32.75;36.11;100310.50;5012154;28;20466;-76
2022/07/28 11:42:24;;;;;;;1.25;0.80;;;;;;;33.05;35.88;100334.78;5011478;28;20050;-75
2022/07/28 11:44:52;;;;;;;5.32;1.27;;;;;;;33.05;35.57;100311.63;5015920;28;20049;-76